createdAt,value
2024-01-28T00:00:48.513Z,86181.13
2024-01-28T00:03:15.854Z,86179.19
2024-01-28T00:05:42.678Z,86174.56
2024-01-28T00:08:09.399Z,86179.78
2024-01-28T00:10:37.089Z,86187.50
2024-01-28T00:13:03.719Z,86175.25
2024-01-28T00:15:30.425Z,86176.59
2024-01-28T00:18:00.031Z,86190.09
2024-01-28T00:20:26.695Z,86195.56
2024-01-28T00:22:53.397Z,86201.13
2024-01-28T00:25:20.050Z,86206.06
2024-01-28T00:27:46.789Z,86207.31
2024-01-28T00:30:14.303Z,86208.56
2024-01-28T00:32:42.863Z,86200.69
2024-01-28T00:35:09.788Z,86193.78
2024-01-28T00:37:36.615Z,86199.59
2024-01-28T00:40:05.171Z,86184.63
2024-01-28T00:42:32.028Z,86181.31
2024-01-28T00:44:58.735Z,86180.34
2024-01-28T00:47:25.396Z,86187.97
2024-01-28T00:49:52.569Z,86178.34
2024-01-28T00:52:19.319Z,86187.81
2024-01-28T00:54:46.121Z,86177.06
2024-01-28T00:57:12.831Z,86185.75
2024-01-28T00:59:39.644Z,86183.03
2024-01-28T01:02:06.385Z,86181.03
2024-01-28T01:04:33.475Z,86189.34
2024-01-28T01:07:00.287Z,86187.44
2024-01-28T01:09:27.212Z,86188.00
2024-01-28T01:11:53.849Z,86178.09
2024-01-28T01:14:20.898Z,86179.28
2024-01-28T01:16:47.500Z,86173.91
2024-01-28T01:19:14.359Z,86172.22
2024-01-28T01:21:41.174Z,86170.34
2024-01-28T01:24:07.885Z,86170.94
2024-01-28T01:26:34.586Z,86176.41
2024-01-28T01:29:01.248Z,86185.81
2024-01-28T01:31:27.989Z,86181.72
2024-01-28T01:33:54.767Z,86185.91
2024-01-28T01:36:21.638Z,86182.81
2024-01-28T01:38:48.536Z,86182.28
2024-01-28T01:41:15.367Z,86181.47
2024-01-28T01:43:42.162Z,86186.81
2024-01-28T01:46:10.335Z,86178.91
2024-01-28T01:48:37.758Z,86174.59
2024-01-28T01:51:06.780Z,86173.47
2024-01-28T01:53:33.779Z,86176.97
2024-01-28T01:56:00.498Z,86175.97
2024-01-28T01:58:27.171Z,86183.06
2024-01-28T02:00:53.954Z,86176.28
2024-01-28T02:03:20.744Z,86169.16
2024-01-28T02:05:47.813Z,86164.66
2024-01-28T02:08:14.710Z,86173.75
2024-01-28T02:10:41.477Z,86172.72
2024-01-28T02:13:08.353Z,86168.84
2024-01-28T02:15:39.411Z,86176.94
2024-01-28T02:18:06.370Z,86167.84
2024-01-28T02:20:33.109Z,86173.75
2024-01-28T02:22:59.786Z,86174.63
2024-01-28T02:25:26.488Z,86183.53
2024-01-28T02:27:53.149Z,86180.94
2024-01-28T02:30:20.124Z,86179.75
2024-01-28T02:32:47.568Z,86180.69
2024-01-28T02:35:14.313Z,86180.16
2024-01-28T02:37:41.079Z,86191.28
2024-01-28T02:40:08.009Z,86179.91
2024-01-28T02:42:34.677Z,86179.69
2024-01-28T02:45:01.320Z,86179.84
2024-01-28T02:49:54.584Z,86183.91
2024-01-28T02:52:21.382Z,86186.38
2024-01-28T02:54:48.160Z,86183.72
2024-01-28T02:57:14.939Z,86186.66
2024-01-28T02:59:41.603Z,86185.25
2024-01-28T03:02:08.355Z,86188.50
2024-01-28T03:04:38.848Z,86188.16
2024-01-28T03:07:06.033Z,86198.00
2024-01-28T03:09:32.848Z,86201.16
2024-01-28T03:11:59.680Z,86194.47
2024-01-28T03:14:27.415Z,86203.63
2024-01-28T03:16:54.249Z,86209.31
2024-01-28T03:19:21.002Z,86209.53
2024-01-28T03:21:47.687Z,86198.56
2024-01-28T03:24:14.472Z,86207.22
2024-01-28T03:26:41.239Z,86213.03
2024-01-28T03:29:08.722Z,86213.25
2024-01-28T03:31:35.455Z,86209.63
2024-01-28T03:34:02.409Z,86215.91
2024-01-28T03:36:29.369Z,86213.41
2024-01-28T03:38:56.209Z,86223.91
2024-01-28T03:41:22.950Z,86220.63
2024-01-28T03:43:49.673Z,86226.09
2024-01-28T03:46:16.562Z,86230.69
2024-01-28T03:48:43.524Z,86227.59
2024-01-28T03:51:10.271Z,86229.16
2024-01-28T03:53:36.922Z,86228.28
2024-01-28T03:56:03.583Z,86225.66
2024-01-28T03:58:30.284Z,86227.19
2024-01-28T04:00:57.064Z,86218.56
2024-01-28T04:03:23.876Z,86222.16
2024-01-28T04:05:50.575Z,86227.56
2024-01-28T04:08:17.240Z,86228.16
2024-01-28T04:10:43.923Z,86237.34
2024-01-28T04:13:10.633Z,86251.88
2024-01-28T04:15:37.283Z,86259.28
2024-01-28T04:18:04.176Z,86253.19
2024-01-28T04:20:30.933Z,86259.63
2024-01-28T04:22:57.641Z,86266.72
2024-01-28T04:25:24.249Z,86262.91
2024-01-28T04:27:50.939Z,86267.38
2024-01-28T04:30:18.311Z,86268.09
2024-01-28T04:32:45.675Z,86261.44
2024-01-28T04:35:13.832Z,86276.16
2024-01-28T04:37:40.903Z,86281.41
2024-01-28T04:40:07.988Z,86280.78
2024-01-28T04:42:34.889Z,86289.94
2024-01-28T04:45:01.625Z,86292.78
2024-01-28T04:47:28.367Z,86300.75
2024-01-28T04:49:55.181Z,86292.13
2024-01-28T04:52:22.221Z,86301.84
2024-01-28T04:54:48.967Z,86301.28
2024-01-28T04:57:15.714Z,86309.22
2024-01-28T04:59:42.349Z,86304.13
2024-01-28T05:02:09.052Z,86304.22
2024-01-28T05:04:35.904Z,86312.72
2024-01-28T05:07:02.788Z,86312.78
2024-01-28T05:09:29.511Z,86307.69
2024-01-28T05:11:56.122Z,86319.69
2024-01-28T05:14:22.834Z,86319.94
2024-01-28T05:16:49.522Z,86317.19
2024-01-28T05:19:16.386Z,86320.28
2024-01-28T05:21:43.263Z,86313.09
2024-01-28T05:24:10.127Z,86320.06
2024-01-28T05:26:37.717Z,86325.31
2024-01-28T05:29:07.104Z,86334.78
2024-01-28T05:31:34.301Z,86336.81
2024-01-28T05:34:01.861Z,86329.38
2024-01-28T05:36:28.692Z,86338.53
2024-01-28T05:38:58.985Z,86340.66
2024-01-28T05:41:25.698Z,86349.28
2024-01-28T05:43:52.400Z,86349.56
2024-01-28T05:46:19.378Z,86356.00
2024-01-28T05:48:46.026Z,86358.78
2024-01-28T05:51:13.491Z,86357.59
2024-01-28T05:53:40.274Z,86363.56
2024-01-28T05:56:07.449Z,86366.50
2024-01-28T05:58:34.388Z,86368.06
2024-01-28T06:01:06.683Z,86372.31
2024-01-28T06:03:35.161Z,86376.19
2024-01-28T06:06:02.537Z,86375.25
2024-01-28T06:08:30.287Z,86380.22
2024-01-28T06:10:57.445Z,86383.19
2024-01-28T06:13:24.272Z,86379.91
2024-01-28T06:15:52.494Z,86386.25
2024-01-28T06:18:20.637Z,86377.97
2024-01-28T06:20:47.637Z,86379.25
2024-01-28T06:23:14.300Z,86389.84
2024-01-28T06:25:41.122Z,86386.63
2024-01-28T06:28:07.845Z,86384.25
2024-01-28T06:30:34.912Z,86383.03
2024-01-28T06:33:01.964Z,86385.97
2024-01-28T06:35:28.782Z,86390.59
2024-01-28T06:37:55.744Z,86392.34
2024-01-28T06:40:22.358Z,86387.50
2024-01-28T06:42:52.955Z,86388.63
2024-01-28T06:45:20.544Z,86396.06
2024-01-28T06:47:47.674Z,86396.28
2024-01-28T06:50:14.546Z,86392.09
2024-01-28T06:52:41.258Z,86389.63
2024-01-28T06:55:08.642Z,86393.03
2024-01-28T06:57:35.555Z,86398.06
2024-01-28T07:00:02.248Z,86398.78
2024-01-28T07:02:28.891Z,86399.78
2024-01-28T07:04:55.789Z,86402.97
2024-01-28T07:07:22.826Z,86409.00
2024-01-28T07:09:49.602Z,86408.81
2024-01-28T07:12:16.460Z,86403.25
2024-01-28T07:14:43.074Z,86400.25
2024-01-28T07:17:10.315Z,86400.34
2024-01-28T07:19:37.056Z,86404.22
2024-01-28T07:22:04.068Z,86409.47
2024-01-28T07:24:30.777Z,86404.91
2024-01-28T07:26:57.401Z,86399.19
2024-01-28T07:29:24.050Z,86391.59
2024-01-28T07:31:52.396Z,86402.13
2024-01-28T07:34:21.513Z,86408.19
2024-01-28T07:36:48.766Z,86409.06
2024-01-28T07:39:16.342Z,86417.78
2024-01-28T07:41:43.021Z,86417.91
2024-01-28T07:44:09.831Z,86428.13
2024-01-28T07:46:36.472Z,86432.34
2024-01-28T07:49:03.322Z,86429.00
2024-01-28T07:51:30.333Z,86423.31
2024-01-28T07:53:57.017Z,86433.38
2024-01-28T07:56:23.644Z,86428.75
2024-01-28T07:58:50.367Z,86434.97
2024-01-28T08:01:17.183Z,86434.34
2024-01-28T08:03:44.022Z,86429.44
2024-01-28T08:06:11.443Z,86435.44
2024-01-28T08:08:38.121Z,86435.03
2024-01-28T08:11:04.879Z,86441.72
2024-01-28T08:13:31.620Z,86441.09
2024-01-28T08:16:03.119Z,86442.66
2024-01-28T08:18:30.017Z,86435.63
2024-01-28T08:20:57.494Z,86447.59
2024-01-28T08:23:24.257Z,86438.09
2024-01-28T08:25:51.082Z,86448.94
2024-01-28T08:28:17.871Z,86451.44
2024-01-28T08:30:44.992Z,86453.00
2024-01-28T08:33:11.830Z,86456.81
2024-01-28T08:35:42.346Z,86457.03
2024-01-28T08:38:09.300Z,86460.16
2024-01-28T08:40:35.943Z,86454.84
2024-01-28T08:43:05.685Z,86463.47
2024-01-28T08:45:32.519Z,86468.75
2024-01-28T08:47:59.254Z,86468.59
2024-01-28T08:50:26.010Z,86473.25
2024-01-28T08:52:55.330Z,86481.56
2024-01-28T08:55:21.973Z,86477.31
2024-01-28T08:57:48.752Z,86472.59
2024-01-28T09:00:15.901Z,86476.84
2024-01-28T09:02:42.613Z,86480.69
2024-01-28T09:05:09.683Z,86481.19
2024-01-28T09:07:36.371Z,86485.25
2024-01-28T09:10:03.211Z,86476.47
2024-01-28T09:12:30.083Z,86486.53
2024-01-28T09:14:56.731Z,86483.50
2024-01-28T09:17:23.378Z,86482.09
2024-01-28T09:19:50.134Z,86487.34
2024-01-28T09:22:16.968Z,86480.94
2024-01-28T09:24:43.876Z,86485.44
2024-01-28T09:27:11.785Z,86480.94
2024-01-28T09:29:38.933Z,86485.66
2024-01-28T09:32:05.783Z,86490.31
2024-01-28T09:34:32.518Z,86488.91
2024-01-28T09:36:59.292Z,86497.19
2024-01-28T09:39:26.356Z,86491.53
2024-01-28T09:41:53.012Z,86497.13
2024-01-28T09:44:19.900Z,86492.34
2024-01-28T09:46:46.506Z,86499.81
2024-01-28T09:49:13.490Z,86501.09
2024-01-28T09:51:40.499Z,86498.06
2024-01-28T09:54:08.604Z,86500.50
2024-01-28T09:56:35.285Z,86499.63
2024-01-28T09:59:01.851Z,86494.41
2024-01-28T10:01:28.562Z,86491.72
2024-01-28T10:03:55.322Z,86487.31
2024-01-28T10:06:22.714Z,86489.31
2024-01-28T10:08:49.410Z,86491.66
2024-01-28T10:11:16.021Z,86483.34
2024-01-28T10:13:42.741Z,86486.53
2024-01-28T10:16:09.427Z,86491.41
2024-01-28T10:18:36.238Z,86495.50
2024-01-28T10:21:03.104Z,86496.69
2024-01-28T10:23:30.240Z,86497.66
2024-01-28T10:25:59.433Z,86486.97
2024-01-28T10:28:29.307Z,86486.94
2024-01-28T10:30:56.423Z,86484.09
2024-01-28T10:33:23.318Z,86491.53
2024-01-28T10:35:50.052Z,86496.28
2024-01-28T10:38:17.490Z,86497.91
2024-01-28T10:40:46.046Z,86490.66
2024-01-28T10:43:13.058Z,86493.47
2024-01-28T10:45:39.732Z,86490.75
2024-01-28T10:48:12.664Z,86489.00
2024-01-28T10:50:39.820Z,86480.09
2024-01-28T10:53:06.485Z,86485.22
2024-01-28T10:55:33.495Z,86492.22
2024-01-28T10:58:00.480Z,86492.06
2024-01-28T11:00:27.819Z,86490.31
2024-01-28T11:02:56.364Z,86484.31
2024-01-28T11:05:23.151Z,86498.81
2024-01-28T11:07:51.334Z,86488.22
2024-01-28T11:10:18.164Z,86487.03
2024-01-28T11:12:44.876Z,86485.03
2024-01-28T11:15:15.014Z,86487.03
2024-01-28T11:17:41.775Z,86487.22
2024-01-28T11:20:08.692Z,86489.09
2024-01-28T11:22:51.027Z,86478.41
2024-01-28T11:25:19.681Z,86477.13
2024-01-28T11:27:46.873Z,86482.06
2024-01-28T11:30:14.073Z,86475.06
2024-01-28T11:32:43.254Z,86483.16
2024-01-28T11:35:11.836Z,86482.44
2024-01-28T11:37:42.986Z,86485.56
2024-01-28T11:40:12.404Z,86483.28
2024-01-28T11:42:39.188Z,86475.31
2024-01-28T11:45:06.019Z,86483.94
2024-01-28T11:47:32.688Z,86483.50
2024-01-28T11:49:59.514Z,86487.16
2024-01-28T11:52:27.694Z,86493.38
2024-01-28T11:54:54.614Z,86486.00
2024-01-28T11:57:21.344Z,86477.94
2024-01-28T11:59:48.018Z,86483.97
2024-01-28T12:02:16.086Z,86484.28
2024-01-28T12:04:42.736Z,86484.38
2024-01-28T12:07:10.048Z,86479.34
2024-01-28T12:09:38.720Z,86477.56
2024-01-28T12:12:07.803Z,86472.09
2024-01-28T12:14:34.531Z,86475.72
2024-01-28T12:17:01.522Z,86476.03
2024-01-28T12:19:28.250Z,86468.72
2024-01-28T12:21:55.067Z,86468.97
2024-01-28T12:24:23.152Z,86477.63
2024-01-28T12:26:49.792Z,86479.13
2024-01-28T12:29:16.435Z,86478.22
2024-01-28T12:31:44.113Z,86484.72
2024-01-28T12:34:19.509Z,86479.25
2024-01-28T12:36:46.338Z,86475.94
2024-01-28T12:39:13.097Z,86476.69
2024-01-28T12:41:39.849Z,86473.66
2024-01-28T12:44:06.760Z,86472.47
2024-01-28T12:46:34.292Z,86475.13
2024-01-28T12:49:01.457Z,86472.44
2024-01-28T12:51:28.227Z,86475.06
2024-01-28T12:53:54.980Z,86476.28
2024-01-28T12:56:21.912Z,86473.31
2024-01-28T12:58:48.734Z,86473.31
2024-01-28T13:01:15.665Z,86468.06
2024-01-28T13:03:42.418Z,86470.31
2024-01-28T13:06:09.292Z,86468.50
2024-01-28T13:08:36.353Z,86469.72
2024-01-28T13:11:03.861Z,86475.22
2024-01-28T13:13:33.020Z,86473.19
2024-01-28T13:15:59.800Z,86476.41
2024-01-28T13:18:33.736Z,86467.25
2024-01-28T13:21:02.633Z,86471.34
2024-01-28T13:23:29.382Z,86476.38
2024-01-28T13:25:55.992Z,86469.78
2024-01-28T13:28:22.716Z,86471.91
2024-01-28T13:30:49.462Z,86479.59
2024-01-28T13:33:16.457Z,86475.19
2024-01-28T13:35:43.258Z,86474.78
2024-01-28T13:38:10.051Z,86475.13
2024-01-28T13:40:36.744Z,86480.44
2024-01-28T13:43:03.511Z,86479.03
2024-01-28T13:45:30.086Z,86482.56
2024-01-28T13:47:56.846Z,86487.75
2024-01-28T13:50:23.562Z,86487.09
2024-01-28T13:52:50.423Z,86485.06
2024-01-28T13:55:17.132Z,86495.97
2024-01-28T13:57:43.815Z,86499.47
2024-01-28T14:00:11.807Z,86496.78
2024-01-28T14:02:40.430Z,86494.69
2024-01-28T14:05:08.703Z,86502.56
2024-01-28T14:07:36.116Z,86508.19
2024-01-28T14:10:03.293Z,86509.19
2024-01-28T14:12:29.904Z,86505.91
2024-01-28T14:14:56.583Z,86514.19
2024-01-28T14:17:23.304Z,86516.84
2024-01-28T14:19:49.981Z,86518.84
2024-01-28T14:22:16.686Z,86526.28
2024-01-28T14:24:43.364Z,86530.63
2024-01-28T14:27:10.456Z,86523.28
2024-01-28T14:29:37.228Z,86532.25
2024-01-28T14:32:03.906Z,86533.34
2024-01-28T14:34:30.717Z,86539.00
2024-01-28T14:36:57.545Z,86539.00
2024-01-28T14:39:29.562Z,86529.88
2024-01-28T14:41:56.262Z,86538.28
2024-01-28T14:44:22.945Z,86536.47
2024-01-28T14:46:49.691Z,86534.19
2024-01-28T14:49:16.533Z,86535.63
2024-01-28T14:51:43.222Z,86531.50
2024-01-28T14:54:10.048Z,86532.66
2024-01-28T14:56:36.741Z,86532.66
2024-01-28T14:59:03.444Z,86540.31
2024-01-28T15:01:30.234Z,86537.31
2024-01-28T15:03:57.129Z,86546.41
2024-01-28T15:06:23.919Z,86550.44
2024-01-28T15:08:50.651Z,86548.72
2024-01-28T15:11:17.281Z,86541.97
2024-01-28T15:13:44.006Z,86547.72
2024-01-28T15:16:10.626Z,86549.91
2024-01-28T15:18:37.495Z,86544.56
2024-01-28T15:21:04.677Z,86546.63
2024-01-28T15:23:31.273Z,86537.66
2024-01-28T15:25:57.916Z,86549.94
2024-01-28T15:28:25.717Z,86546.38
2024-01-28T15:30:58.964Z,86543.34
2024-01-28T15:33:26.969Z,86546.16
2024-01-28T15:35:54.461Z,86542.00
2024-01-28T15:38:21.120Z,86548.56
2024-01-28T15:40:47.806Z,86552.84
2024-01-28T15:43:14.656Z,86564.59
2024-01-28T15:45:41.362Z,86565.75
2024-01-28T15:48:10.741Z,86560.31
2024-01-28T15:50:38.017Z,86569.56
2024-01-28T15:53:04.677Z,86575.59
2024-01-28T15:55:32.251Z,86574.31
2024-01-28T15:57:59.211Z,86575.03
2024-01-28T16:00:25.907Z,86580.94
2024-01-28T16:02:52.584Z,86570.66
2024-01-28T16:05:19.328Z,86571.50
2024-01-28T16:07:47.116Z,86571.91
2024-01-28T16:10:14.160Z,86574.16
2024-01-28T16:12:40.906Z,86577.16
2024-01-28T16:15:07.989Z,86580.44
2024-01-28T16:17:36.435Z,86579.81
2024-01-28T16:20:05.021Z,86575.72
2024-01-28T16:22:31.779Z,86578.91
2024-01-28T16:24:58.618Z,86582.88
2024-01-28T16:27:25.366Z,86587.41
2024-01-28T16:29:52.036Z,86582.13
2024-01-28T16:32:19.130Z,86584.56
2024-01-28T16:34:47.250Z,86592.25
2024-01-28T16:37:14.324Z,86593.53
2024-01-28T16:39:41.172Z,86590.75
2024-01-28T16:42:07.977Z,86592.91
2024-01-28T16:44:34.596Z,86594.78
2024-01-28T16:47:01.236Z,86598.75
2024-01-28T16:49:28.053Z,86588.16
2024-01-28T16:51:54.999Z,86600.94
2024-01-28T16:54:22.322Z,86602.09
2024-01-28T16:56:48.951Z,86596.88
2024-01-28T16:59:15.657Z,86601.63
2024-01-28T17:01:44.707Z,86595.06
2024-01-28T17:04:11.687Z,86595.25
2024-01-28T17:06:38.710Z,86592.72
2024-01-28T17:09:05.758Z,86599.50
2024-01-28T17:11:32.567Z,86597.50
2024-01-28T17:13:59.783Z,86603.22
2024-01-28T17:16:26.486Z,86602.88
2024-01-28T17:18:53.426Z,86609.75
2024-01-28T17:21:20.287Z,86606.94
2024-01-28T17:23:48.972Z,86608.72
2024-01-28T17:26:15.983Z,86607.91
2024-01-28T17:28:42.746Z,86615.81
2024-01-28T17:31:09.464Z,86605.03
2024-01-28T17:33:36.415Z,86615.69
2024-01-28T17:36:03.199Z,86614.81
2024-01-28T17:38:31.500Z,86613.97
2024-01-28T17:40:58.291Z,86618.44
2024-01-28T17:43:26.987Z,86615.63
2024-01-28T17:45:53.931Z,86614.28
2024-01-28T17:48:21.340Z,86628.91
2024-01-28T17:50:48.083Z,86627.78
2024-01-28T17:53:14.743Z,86627.91
2024-01-28T17:55:43.048Z,86635.56
2024-01-28T17:58:09.849Z,86631.75
2024-01-28T18:00:37.311Z,86628.09
2024-01-28T18:03:04.290Z,86638.25
2024-01-28T18:05:31.316Z,86633.97
2024-01-28T18:07:57.934Z,86636.00
2024-01-28T18:10:24.614Z,86629.84
2024-01-28T18:12:51.439Z,86627.88
2024-01-28T18:15:18.544Z,86629.28
2024-01-28T18:17:45.257Z,86627.91
2024-01-28T18:20:11.984Z,86625.13
2024-01-28T18:22:39.382Z,86624.31
2024-01-28T18:25:06.711Z,86623.84
2024-01-28T18:27:33.470Z,86627.63
2024-01-28T18:30:00.174Z,86627.88
2024-01-28T18:32:26.924Z,86634.63
2024-01-28T18:34:55.549Z,86628.09
2024-01-28T18:37:22.347Z,86620.22
2024-01-28T18:39:49.173Z,86621.69
2024-01-28T18:42:16.164Z,86632.69
2024-01-28T18:44:47.430Z,86628.94
2024-01-28T18:47:17.270Z,86624.22
2024-01-28T18:49:44.214Z,86634.91
2024-01-28T18:52:11.598Z,86634.78
2024-01-28T18:54:38.335Z,86637.28
2024-01-28T18:57:05.251Z,86640.53
2024-01-28T18:59:31.928Z,86646.81
2024-01-28T19:01:58.688Z,86643.31
2024-01-28T19:04:25.446Z,86642.63
2024-01-28T19:06:52.521Z,86644.84
2024-01-28T19:09:19.159Z,86648.06
2024-01-28T19:11:45.960Z,86645.81
2024-01-28T19:14:15.562Z,86644.72
2024-01-28T19:16:42.675Z,86644.03
2024-01-28T19:19:09.532Z,86648.38
2024-01-28T19:21:37.190Z,86637.03
2024-01-28T19:24:04.002Z,86651.47
2024-01-28T19:26:30.743Z,86638.56
2024-01-28T19:28:57.494Z,86641.34
2024-01-28T19:31:24.204Z,86640.03
2024-01-28T19:33:51.029Z,86639.50
2024-01-28T19:36:17.850Z,86645.38
2024-01-28T19:38:44.472Z,86650.06
2024-01-28T19:41:11.653Z,86650.97
2024-01-28T19:43:38.343Z,86644.56
2024-01-28T19:46:05.506Z,86644.03
2024-01-28T19:48:32.344Z,86653.72
2024-01-28T19:50:58.988Z,86656.28
2024-01-28T19:53:25.737Z,86654.00
2024-01-28T19:55:52.596Z,86649.44
2024-01-28T19:58:19.941Z,86655.38
2024-01-28T20:00:46.993Z,86661.50
2024-01-28T20:03:14.069Z,86660.97
2024-01-28T20:05:42.103Z,86659.22
2024-01-28T20:08:09.929Z,86654.53
2024-01-28T20:10:36.662Z,86656.56
2024-01-28T20:13:03.471Z,86666.13
2024-01-28T20:15:30.288Z,86657.25
2024-01-28T20:17:58.410Z,86669.69
2024-01-28T20:20:25.179Z,86668.09
2024-01-28T20:22:52.038Z,86664.44
2024-01-28T20:25:18.770Z,86668.47
2024-01-28T20:27:45.575Z,86668.72
2024-01-28T20:30:12.520Z,86662.19
2024-01-28T20:32:39.330Z,86668.72
2024-01-28T20:35:08.345Z,86667.13
2024-01-28T20:37:35.137Z,86673.69
2024-01-28T20:40:01.921Z,86671.41
2024-01-28T20:42:29.767Z,86664.53
2024-01-28T20:44:56.544Z,86670.91
2024-01-28T20:47:23.348Z,86666.69
2024-01-28T20:49:50.734Z,86674.78
2024-01-28T20:52:17.594Z,86670.19
2024-01-28T20:54:44.322Z,86669.34
2024-01-28T20:57:11.040Z,86680.13
2024-01-28T20:59:40.704Z,86670.00
2024-01-28T21:02:09.778Z,86668.66
2024-01-28T21:04:38.830Z,86669.19
2024-01-28T21:07:05.581Z,86669.22
2024-01-28T21:09:32.510Z,86663.75
2024-01-28T21:11:59.186Z,86671.31
2024-01-28T21:14:26.004Z,86672.31
2024-01-28T21:16:52.736Z,86662.34
2024-01-28T21:19:19.558Z,86666.50
2024-01-28T21:21:46.345Z,86668.22
2024-01-28T21:24:13.013Z,86667.03
2024-01-28T21:26:40.880Z,86678.91
2024-01-28T21:29:07.576Z,86672.44
2024-01-28T21:31:34.278Z,86664.16
2024-01-28T21:34:02.336Z,86663.72
2024-01-28T21:36:29.148Z,86672.72
2024-01-28T21:38:57.242Z,86662.94
2024-01-28T21:41:23.895Z,86664.09
2024-01-28T21:43:50.760Z,86672.81
2024-01-28T21:46:17.701Z,86664.78
2024-01-28T21:48:44.415Z,86672.66
2024-01-28T21:51:11.484Z,86670.53
2024-01-28T21:53:38.168Z,86676.25
2024-01-28T21:56:06.147Z,86675.50
2024-01-28T21:58:32.784Z,86675.28
2024-01-28T22:01:00.476Z,86673.69
2024-01-28T22:03:27.278Z,86672.81
2024-01-28T22:05:54.117Z,86672.53
2024-01-28T22:08:21.315Z,86673.34
2024-01-28T22:10:48.147Z,86670.84
2024-01-28T22:13:15.657Z,86670.09
2024-01-28T22:15:42.443Z,86668.75
2024-01-28T22:18:09.238Z,86669.44
2024-01-28T22:20:36.483Z,86674.69
2024-01-28T22:23:03.150Z,86670.22
2024-01-28T22:25:30.128Z,86670.50
2024-01-28T22:27:57.016Z,86677.13
2024-01-28T22:30:25.118Z,86669.56
2024-01-28T22:32:51.995Z,86665.78
2024-01-28T22:35:18.858Z,86670.41
2024-01-28T22:37:45.701Z,86672.09
2024-01-28T22:40:12.827Z,86668.28
2024-01-28T22:42:39.566Z,86675.84
2024-01-28T22:45:06.791Z,86671.25
2024-01-28T22:47:34.154Z,86662.78
2024-01-28T22:50:01.211Z,86668.56
2024-01-28T22:52:28.143Z,86663.84
2024-01-28T22:54:55.542Z,86669.69
2024-01-28T22:57:22.515Z,86664.50
2024-01-28T22:59:49.178Z,86669.53
2024-01-28T23:02:22.178Z,86661.22
2024-01-28T23:04:49.052Z,86660.63
2024-01-28T23:07:15.763Z,86661.94
2024-01-28T23:09:42.477Z,86672.00
2024-01-28T23:12:09.270Z,86670.97
2024-01-28T23:14:36.182Z,86669.00
2024-01-28T23:17:02.878Z,86660.34
2024-01-28T23:19:29.715Z,86666.94
2024-01-28T23:21:56.490Z,86667.16
2024-01-28T23:24:23.345Z,86666.22
2024-01-28T23:26:49.948Z,86666.19
2024-01-28T23:29:17.198Z,86662.91
2024-01-28T23:31:45.287Z,86660.59
2024-01-28T23:34:13.787Z,86667.13
2024-01-28T23:36:40.479Z,86670.69
2024-01-28T23:39:07.302Z,86654.47
2024-01-28T23:41:33.873Z,86658.94
2024-01-28T23:44:01.588Z,86655.78
2024-01-28T23:46:29.432Z,86656.94
2024-01-28T23:48:56.207Z,86658.31
2024-01-28T23:51:24.498Z,86657.75
2024-01-28T23:53:51.169Z,86652.81
2024-01-28T23:56:17.872Z,86660.56
2024-01-28T23:58:44.616Z,86666.28
